Terminal Aerodrome Forecast
Issued by NWS

Home | Current Version | Previous Version | Text Only | Print | Product List | Glossary On
Versions: 1 2 3 4 5 6 7 8 9 10 11 12 13 14 15 16 17 18 19 20 21 22 23
394
FTUS44 KLZK 292334
TAFADF
TAF
KADF 292334Z 3000/3024 VRB03KT P6SM SCT040 BKN100
     FM300300 VRB03KT P6SM SCT050 BKN250
     FM300900 00000KT 4SM BR FEW005 SCT250
      TEMPO 3010/3013 1SM BR SCT005 BKN020
     FM301400 VRB03KT P6SM FEW005 SCT250
     FM301700 10006KT P6SM SCT040 SCT250=

USA.gov is the U.S. government's official web portal to all federal, state and local government web resources and services.